sensor_id;sensor_type;location;lat;lon;timestamp;temperature;humidity
18085;DHT22;9169;44.492;11.372;2022-08-19T00:01:43;25.80;49.60
18085;DHT22;9169;44.492;11.372;2022-08-19T00:04:12;25.90;49.70
18085;DHT22;9169;44.492;11.372;2022-08-19T00:06:40;25.90;49.90
18085;DHT22;9169;44.492;11.372;2022-08-19T00:09:09;25.90;49.80
18085;DHT22;9169;44.492;11.372;2022-08-19T00:11:37;25.90;51.10
18085;DHT22;9169;44.492;11.372;2022-08-19T00:14:04;25.90;49.80
18085;DHT22;9169;44.492;11.372;2022-08-19T00:16:32;25.90;49.30
18085;DHT22;9169;44.492;11.372;2022-08-19T00:18:59;25.90;48.90
18085;DHT22;9169;44.492;11.372;2022-08-19T00:21:26;26.00;49.10
18085;DHT22;9169;44.492;11.372;2022-08-19T00:23:53;26.00;48.70
18085;DHT22;9169;44.492;11.372;2022-08-19T00:26:20;25.90;48.70
18085;DHT22;9169;44.492;11.372;2022-08-19T00:28:47;26.10;48.70
18085;DHT22;9169;44.492;11.372;2022-08-19T00:31:14;26.10;48.30
18085;DHT22;9169;44.492;11.372;2022-08-19T00:33:43;26.20;48.10
18085;DHT22;9169;44.492;11.372;2022-08-19T00:36:09;26.20;48.20
18085;DHT22;9169;44.492;11.372;2022-08-19T00:38:39;26.20;48.60
18085;DHT22;9169;44.492;11.372;2022-08-19T00:41:07;26.20;48.40
18085;DHT22;9169;44.492;11.372;2022-08-19T00:43:34;26.20;48.80
18085;DHT22;9169;44.492;11.372;2022-08-19T00:46:01;26.30;48.30
18085;DHT22;9169;44.492;11.372;2022-08-19T00:48:30;26.30;48.00
18085;DHT22;9169;44.492;11.372;2022-08-19T00:50:59;26.30;47.70
18085;DHT22;9169;44.492;11.372;2022-08-19T00:53:27;26.40;47.80
18085;DHT22;9169;44.492;11.372;2022-08-19T00:55:56;26.40;47.90
18085;DHT22;9169;44.492;11.372;2022-08-19T00:58:24;26.40;47.70
18085;DHT22;9169;44.492;11.372;2022-08-19T01:00:52;26.40;47.40
18085;DHT22;9169;44.492;11.372;2022-08-19T01:03:20;26.40;48.70
18085;DHT22;9169;44.492;11.372;2022-08-19T01:05:47;26.30;48.10
18085;DHT22;9169;44.492;11.372;2022-08-19T01:08:17;26.30;48.10
18085;DHT22;9169;44.492;11.372;2022-08-19T01:10:44;26.20;48.10
18085;DHT22;9169;44.492;11.372;2022-08-19T01:13:13;26.20;47.90
18085;DHT22;9169;44.492;11.372;2022-08-19T01:15:42;26.20;47.90
18085;DHT22;9169;44.492;11.372;2022-08-19T01:18:12;26.20;48.00
18085;DHT22;9169;44.492;11.372;2022-08-19T01:20:39;26.10;47.90
18085;DHT22;9169;44.492;11.372;2022-08-19T01:23:08;26.10;47.90
18085;DHT22;9169;44.492;11.372;2022-08-19T01:25:39;26.10;48.00
18085;DHT22;9169;44.492;11.372;2022-08-19T01:28:07;26.00;49.20
18085;DHT22;9169;44.492;11.372;2022-08-19T01:30:35;26.00;48.90
18085;DHT22;9169;44.492;11.372;2022-08-19T01:33:02;25.90;48.40
18085;DHT22;9169;44.492;11.372;2022-08-19T01:35:30;25.90;48.80
18085;DHT22;9169;44.492;11.372;2022-08-19T01:37:58;25.90;49.00
18085;DHT22;9169;44.492;11.372;2022-08-19T01:40:28;25.90;48.40
18085;DHT22;9169;44.492;11.372;2022-08-19T01:42:56;25.90;48.00
18085;DHT22;9169;44.492;11.372;2022-08-19T01:45:23;25.90;48.50
18085;DHT22;9169;44.492;11.372;2022-08-19T01:47:51;25.90;47.80
18085;DHT22;9169;44.492;11.372;2022-08-19T01:50:18;25.90;48.00
18085;DHT22;9169;44.492;11.372;2022-08-19T01:52:45;25.90;48.20
18085;DHT22;9169;44.492;11.372;2022-08-19T01:55:12;25.90;47.70
18085;DHT22;9169;44.492;11.372;2022-08-19T01:57:41;25.90;48.30
18085;DHT22;9169;44.492;11.372;2022-08-19T02:00:10;25.90;48.00
18085;DHT22;9169;44.492;11.372;2022-08-19T02:02:37;25.90;47.60
18085;DHT22;9169;44.492;11.372;2022-08-19T02:05:04;25.90;47.30
18085;DHT22;9169;44.492;11.372;2022-08-19T02:07:32;25.90;47.50
18085;DHT22;9169;44.492;11.372;2022-08-19T02:10:00;25.90;47.50
18085;DHT22;9169;44.492;11.372;2022-08-19T02:12:28;25.90;47.10
18085;DHT22;9169;44.492;11.372;2022-08-19T02:14:56;26.00;47.00
18085;DHT22;9169;44.492;11.372;2022-08-19T02:17:23;26.00;48.20
18085;DHT22;9169;44.492;11.372;2022-08-19T02:19:50;25.90;47.80
18085;DHT22;9169;44.492;11.372;2022-08-19T02:22:17;25.90;47.60
18085;DHT22;9169;44.492;11.372;2022-08-19T02:24:43;25.90;49.40
18085;DHT22;9169;44.492;11.372;2022-08-19T02:27:10;25.80;49.50
18085;DHT22;9169;44.492;11.372;2022-08-19T02:29:37;25.80;49.70
18085;DHT22;9169;44.492;11.372;2022-08-19T02:32:05;25.70;49.40
18085;DHT22;9169;44.492;11.372;2022-08-19T02:34:34;25.70;49.90
18085;DHT22;9169;44.492;11.372;2022-08-19T02:37:01;25.70;49.50
18085;DHT22;9169;44.492;11.372;2022-08-19T02:39:28;25.70;49.00
18085;DHT22;9169;44.492;11.372;2022-08-19T02:41:54;25.70;49.20
18085;DHT22;9169;44.492;11.372;2022-08-19T02:44:20;25.70;49.20
18085;DHT22;9169;44.492;11.372;2022-08-19T02:46:47;25.70;49.80
18085;DHT22;9169;44.492;11.372;2022-08-19T02:49:16;25.60;50.20
18085;DHT22;9169;44.492;11.372;2022-08-19T02:51:44;25.60;49.70
18085;DHT22;9169;44.492;11.372;2022-08-19T02:54:13;25.60;50.00
18085;DHT22;9169;44.492;11.372;2022-08-19T02:56:41;25.60;49.80
18085;DHT22;9169;44.492;11.372;2022-08-19T02:59:07;25.60;49.70
18085;DHT22;9169;44.492;11.372;2022-08-19T03:01:36;25.60;49.90
18085;DHT22;9169;44.492;11.372;2022-08-19T03:04:05;25.60;50.20
18085;DHT22;9169;44.492;11.372;2022-08-19T03:06:34;25.60;50.50
18085;DHT22;9169;44.492;11.372;2022-08-19T03:09:02;25.50;51.00
18085;DHT22;9169;44.492;11.372;2022-08-19T03:11:30;25.50;50.70
18085;DHT22;9169;44.492;11.372;2022-08-19T03:13:57;25.50;50.30
18085;DHT22;9169;44.492;11.372;2022-08-19T03:16:26;25.50;50.00
18085;DHT22;9169;44.492;11.372;2022-08-19T03:18:53;25.50;49.90
18085;DHT22;9169;44.492;11.372;2022-08-19T03:21:23;25.50;50.80
18085;DHT22;9169;44.492;11.372;2022-08-19T03:23:53;25.50;50.80
18085;DHT22;9169;44.492;11.372;2022-08-19T03:26:20;25.50;50.90
18085;DHT22;9169;44.492;11.372;2022-08-19T03:28:47;25.40;50.40
18085;DHT22;9169;44.492;11.372;2022-08-19T03:31:15;25.50;50.00
18085;DHT22;9169;44.492;11.372;2022-08-19T03:33:43;25.50;49.50
18085;DHT22;9169;44.492;11.372;2022-08-19T03:36:10;25.60;49.20
18085;DHT22;9169;44.492;11.372;2022-08-19T03:38:38;25.60;49.00
18085;DHT22;9169;44.492;11.372;2022-08-19T03:41:07;25.60;49.00
18085;DHT22;9169;44.492;11.372;2022-08-19T03:43:35;25.60;49.30
18085;DHT22;9169;44.492;11.372;2022-08-19T03:46:04;25.60;49.30
18085;DHT22;9169;44.492;11.372;2022-08-19T03:48:31;25.60;49.20
18085;DHT22;9169;44.492;11.372;2022-08-19T03:50:58;25.60;49.30
18085;DHT22;9169;44.492;11.372;2022-08-19T03:53:25;25.60;49.00
18085;DHT22;9169;44.492;11.372;2022-08-19T03:55:52;25.60;48.90
18085;DHT22;9169;44.492;11.372;2022-08-19T03:58:21;25.60;49.00
18085;DHT22;9169;44.492;11.372;2022-08-19T04:00:48;25.60;49.70
18085;DHT22;9169;44.492;11.372;2022-08-19T04:03:15;25.60;50.30
18085;DHT22;9169;44.492;11.372;2022-08-19T04:05:44;25.60;49.70
18085;DHT22;9169;44.492;11.372;2022-08-19T04:08:11;25.60;50.10
18085;DHT22;9169;44.492;11.372;2022-08-19T04:10:38;25.60;49.70
18085;DHT22;9169;44.492;11.372;2022-08-19T04:13:06;25.60;49.60
18085;DHT22;9169;44.492;11.372;2022-08-19T04:15:38;25.60;49.90
18085;DHT22;9169;44.492;11.372;2022-08-19T04:18:07;25.60;49.90
18085;DHT22;9169;44.492;11.372;2022-08-19T04:20:38;25.60;51.00
18085;DHT22;9169;44.492;11.372;2022-08-19T04:23:04;25.60;50.80
18085;DHT22;9169;44.492;11.372;2022-08-19T04:25:34;25.60;50.10
18085;DHT22;9169;44.492;11.372;2022-08-19T04:28:01;25.60;50.20
18085;DHT22;9169;44.492;11.372;2022-08-19T04:30:28;25.70;49.50
18085;DHT22;9169;44.492;11.372;2022-08-19T04:32:56;25.70;49.00
18085;DHT22;9169;44.492;11.372;2022-08-19T04:35:23;25.70;49.60
18085;DHT22;9169;44.492;11.372;2022-08-19T04:37:50;25.70;50.30
18085;DHT22;9169;44.492;11.372;2022-08-19T04:40:16;25.70;50.70
18085;DHT22;9169;44.492;11.372;2022-08-19T04:43:00;25.70;50.30
18085;DHT22;9169;44.492;11.372;2022-08-19T04:45:27;25.70;50.00
18085;DHT22;9169;44.492;11.372;2022-08-19T04:47:54;25.70;49.30
18085;DHT22;9169;44.492;11.372;2022-08-19T04:50:23;25.80;49.10
18085;DHT22;9169;44.492;11.372;2022-08-19T04:52:50;25.90;49.60
18085;DHT22;9169;44.492;11.372;2022-08-19T04:55:17;25.90;49.90
18085;DHT22;9169;44.492;11.372;2022-08-19T04:57:44;25.90;49.60
18085;DHT22;9169;44.492;11.372;2022-08-19T05:00:11;25.90;49.70
18085;DHT22;9169;44.492;11.372;2022-08-19T05:02:38;25.90;50.60
18085;DHT22;9169;44.492;11.372;2022-08-19T05:05:05;25.90;50.20
18085;DHT22;9169;44.492;11.372;2022-08-19T05:07:33;25.90;49.50
18085;DHT22;9169;44.492;11.372;2022-08-19T05:10:00;25.90;49.20
18085;DHT22;9169;44.492;11.372;2022-08-19T05:12:27;26.00;48.90
18085;DHT22;9169;44.492;11.372;2022-08-19T05:14:54;26.00;48.80
18085;DHT22;9169;44.492;11.372;2022-08-19T05:17:22;26.10;48.70
18085;DHT22;9169;44.492;11.372;2022-08-19T05:19:48;26.10;49.30
18085;DHT22;9169;44.492;11.372;2022-08-19T05:22:34;26.10;49.60
18085;DHT22;9169;44.492;11.372;2022-08-19T05:25:04;26.10;49.30
18085;DHT22;9169;44.492;11.372;2022-08-19T05:27:31;26.10;49.40
18085;DHT22;9169;44.492;11.372;2022-08-19T05:29:58;26.10;49.40
18085;DHT22;9169;44.492;11.372;2022-08-19T05:32:25;26.10;49.80
18085;DHT22;9169;44.492;11.372;2022-08-19T05:34:52;26.00;49.60
18085;DHT22;9169;44.492;11.372;2022-08-19T05:37:19;26.00;49.80
18085;DHT22;9169;44.492;11.372;2022-08-19T05:39:47;25.90;50.00
18085;DHT22;9169;44.492;11.372;2022-08-19T05:42:14;25.90;50.40
18085;DHT22;9169;44.492;11.372;2022-08-19T05:44:42;25.80;50.50
18085;DHT22;9169;44.492;11.372;2022-08-19T05:47:10;25.80;50.00
18085;DHT22;9169;44.492;11.372;2022-08-19T05:49:37;25.80;49.60
18085;DHT22;9169;44.492;11.372;2022-08-19T05:52:05;25.70;49.70
18085;DHT22;9169;44.492;11.372;2022-08-19T05:54:32;25.70;49.50
18085;DHT22;9169;44.492;11.372;2022-08-19T05:57:01;25.70;50.50
18085;DHT22;9169;44.492;11.372;2022-08-19T05:59:27;25.70;49.90
18085;DHT22;9169;44.492;11.372;2022-08-19T06:01:54;25.70;50.40
18085;DHT22;9169;44.492;11.372;2022-08-19T06:04:22;25.60;50.60
18085;DHT22;9169;44.492;11.372;2022-08-19T06:06:50;25.60;50.00
18085;DHT22;9169;44.492;11.372;2022-08-19T06:09:18;25.50;50.00
18085;DHT22;9169;44.492;11.372;2022-08-19T06:11:45;25.40;50.20
18085;DHT22;9169;44.492;11.372;2022-08-19T06:14:14;25.30;49.60
18085;DHT22;9169;44.492;11.372;2022-08-19T06:16:42;25.20;49.20
18085;DHT22;9169;44.492;11.372;2022-08-19T06:19:10;25.10;49.10
18085;DHT22;9169;44.492;11.372;2022-08-19T06:21:38;25.00;48.80
18085;DHT22;9169;44.492;11.372;2022-08-19T06:24:06;24.90;48.70
18085;DHT22;9169;44.492;11.372;2022-08-19T06:26:33;24.80;48.80
18085;DHT22;9169;44.492;11.372;2022-08-19T06:28:59;24.70;48.90
18085;DHT22;9169;44.492;11.372;2022-08-19T06:31:28;24.60;48.70
18085;DHT22;9169;44.492;11.372;2022-08-19T06:33:56;24.60;48.50
18085;DHT22;9169;44.492;11.372;2022-08-19T06:36:24;24.60;48.50
18085;DHT22;9169;44.492;11.372;2022-08-19T06:38:52;24.60;48.80
18085;DHT22;9169;44.492;11.372;2022-08-19T06:41:19;24.50;48.30
18085;DHT22;9169;44.492;11.372;2022-08-19T06:43:45;24.50;48.20
18085;DHT22;9169;44.492;11.372;2022-08-19T06:46:15;24.50;48.80
18085;DHT22;9169;44.492;11.372;2022-08-19T06:48:44;24.50;48.20
18085;DHT22;9169;44.492;11.372;2022-08-19T06:51:14;24.50;48.00
18085;DHT22;9169;44.492;11.372;2022-08-19T06:53:44;24.50;47.70
18085;DHT22;9169;44.492;11.372;2022-08-19T06:56:12;24.50;47.70
18085;DHT22;9169;44.492;11.372;2022-08-19T06:58:39;24.50;47.90
18085;DHT22;9169;44.492;11.372;2022-08-19T07:01:06;24.50;48.00
18085;DHT22;9169;44.492;11.372;2022-08-19T07:03:34;24.50;48.60
18085;DHT22;9169;44.492;11.372;2022-08-19T07:06:03;24.50;48.50
18085;DHT22;9169;44.492;11.372;2022-08-19T07:08:31;24.50;48.50
18085;DHT22;9169;44.492;11.372;2022-08-19T07:10:59;24.50;48.50
18085;DHT22;9169;44.492;11.372;2022-08-19T07:13:26;24.50;49.00
18085;DHT22;9169;44.492;11.372;2022-08-19T07:15:52;24.50;50.00
18085;DHT22;9169;44.492;11.372;2022-08-19T07:18:20;24.50;50.30
18085;DHT22;9169;44.492;11.372;2022-08-19T07:20:47;24.40;50.20
18085;DHT22;9169;44.492;11.372;2022-08-19T07:23:15;24.40;50.40
18085;DHT22;9169;44.492;11.372;2022-08-19T07:25:42;24.40;50.20
18085;DHT22;9169;44.492;11.372;2022-08-19T07:28:09;24.40;49.90
18085;DHT22;9169;44.492;11.372;2022-08-19T07:30:36;24.40;50.00
18085;DHT22;9169;44.492;11.372;2022-08-19T07:33:03;24.40;50.00
18085;DHT22;9169;44.492;11.372;2022-08-19T07:35:30;24.40;50.90
18085;DHT22;9169;44.492;11.372;2022-08-19T07:37:59;24.40;50.20
18085;DHT22;9169;44.492;11.372;2022-08-19T07:40:29;24.50;49.90
18085;DHT22;9169;44.492;11.372;2022-08-19T07:42:55;24.50;50.00
18085;DHT22;9169;44.492;11.372;2022-08-19T07:45:22;24.60;49.90
18085;DHT22;9169;44.492;11.372;2022-08-19T07:47:49;24.60;49.60
18085;DHT22;9169;44.492;11.372;2022-08-19T07:50:16;24.60;49.50
18085;DHT22;9169;44.492;11.372;2022-08-19T07:52:44;24.70;49.40
18085;DHT22;9169;44.492;11.372;2022-08-19T07:55:11;24.70;49.70
18085;DHT22;9169;44.492;11.372;2022-08-19T07:57:39;24.70;49.40
18085;DHT22;9169;44.492;11.372;2022-08-19T08:00:07;24.80;49.40
18085;DHT22;9169;44.492;11.372;2022-08-19T08:02:34;24.90;49.00
18085;DHT22;9169;44.492;11.372;2022-08-19T08:05:00;24.90;49.00
18085;DHT22;9169;44.492;11.372;2022-08-19T08:07:44;25.00;49.00
18085;DHT22;9169;44.492;11.372;2022-08-19T08:10:29;25.10;48.60
18085;DHT22;9169;44.492;11.372;2022-08-19T08:12:57;25.10;49.20
18085;DHT22;9169;44.492;11.372;2022-08-19T08:15:23;25.10;48.80
18085;DHT22;9169;44.492;11.372;2022-08-19T08:17:50;25.20;48.80
18085;DHT22;9169;44.492;11.372;2022-08-19T08:20:18;25.20;48.60
18085;DHT22;9169;44.492;11.372;2022-08-19T08:22:45;25.20;48.50
18085;DHT22;9169;44.492;11.372;2022-08-19T08:25:29;25.30;48.30
18085;DHT22;9169;44.492;11.372;2022-08-19T08:27:58;25.40;48.30
18085;DHT22;9169;44.492;11.372;2022-08-19T08:30:26;25.50;48.20
18085;DHT22;9169;44.492;11.372;2022-08-19T08:32:53;25.60;48.20
18085;DHT22;9169;44.492;11.372;2022-08-19T08:35:22;25.80;47.90
18085;DHT22;9169;44.492;11.372;2022-08-19T08:37:50;25.90;47.80
18085;DHT22;9169;44.492;11.372;2022-08-19T08:40:18;26.10;47.80
18085;DHT22;9169;44.492;11.372;2022-08-19T08:42:47;26.30;47.60
18085;DHT22;9169;44.492;11.372;2022-08-19T08:45:18;26.50;47.60
18085;DHT22;9169;44.492;11.372;2022-08-19T08:47:48;26.70;47.50
18085;DHT22;9169;44.492;11.372;2022-08-19T08:50:18;26.90;47.40
18085;DHT22;9169;44.492;11.372;2022-08-19T08:52:46;27.00;47.80
18085;DHT22;9169;44.492;11.372;2022-08-19T08:55:15;27.20;47.10
18085;DHT22;9169;44.492;11.372;2022-08-19T08:57:44;27.40;46.80
18085;DHT22;9169;44.492;11.372;2022-08-19T09:00:17;27.50;46.60
18085;DHT22;9169;44.492;11.372;2022-08-19T09:02:46;27.60;46.30
18085;DHT22;9169;44.492;11.372;2022-08-19T09:05:13;27.60;46.30
18085;DHT22;9169;44.492;11.372;2022-08-19T09:07:41;27.70;46.40
18085;DHT22;9169;44.492;11.372;2022-08-19T09:10:15;27.80;46.40
18085;DHT22;9169;44.492;11.372;2022-08-19T09:12:47;28.00;46.70
18085;DHT22;9169;44.492;11.372;2022-08-19T09:15:21;28.10;46.30
18085;DHT22;9169;44.492;11.372;2022-08-19T09:17:50;28.00;46.30
18085;DHT22;9169;44.492;11.372;2022-08-19T09:20:19;27.80;46.20
18085;DHT22;9169;44.492;11.372;2022-08-19T09:22:46;27.70;46.30
18085;DHT22;9169;44.492;11.372;2022-08-19T09:25:17;27.70;46.30
18085;DHT22;9169;44.492;11.372;2022-08-19T09:27:45;27.70;46.10
18085;DHT22;9169;44.492;11.372;2022-08-19T09:30:13;27.70;46.00
18085;DHT22;9169;44.492;11.372;2022-08-19T09:32:40;27.60;45.90
18085;DHT22;9169;44.492;11.372;2022-08-19T09:35:12;27.60;45.90
18085;DHT22;9169;44.492;11.372;2022-08-19T09:37:39;27.80;45.80
18085;DHT22;9169;44.492;11.372;2022-08-19T09:40:06;28.10;45.90
18085;DHT22;9169;44.492;11.372;2022-08-19T09:42:33;28.70;46.00
18085;DHT22;9169;44.492;11.372;2022-08-19T09:45:02;29.50;45.40
18085;DHT22;9169;44.492;11.372;2022-08-19T09:47:29;29.60;44.30
18085;DHT22;9169;44.492;11.372;2022-08-19T09:49:57;29.70;44.40
18085;DHT22;9169;44.492;11.372;2022-08-19T09:52:25;30.40;44.60
18085;DHT22;9169;44.492;11.372;2022-08-19T09:54:52;31.80;44.20
18085;DHT22;9169;44.492;11.372;2022-08-19T09:57:19;33.10;42.50
18085;DHT22;9169;44.492;11.372;2022-08-19T09:59:46;33.90;41.20
18085;DHT22;9169;44.492;11.372;2022-08-19T10:02:13;34.00;40.40
18085;DHT22;9169;44.492;11.372;2022-08-19T10:04:40;34.10;40.30
18085;DHT22;9169;44.492;11.372;2022-08-19T10:07:20;34.50;40.40
18085;DHT22;9169;44.492;11.372;2022-08-19T10:09:48;35.40;40.00
18085;DHT22;9169;44.492;11.372;2022-08-19T10:12:15;36.40;39.30
18085;DHT22;9169;44.492;11.372;2022-08-19T10:14:42;37.20;38.10
18085;DHT22;9169;44.492;11.372;2022-08-19T10:17:10;37.90;37.60
18085;DHT22;9169;44.492;11.372;2022-08-19T10:19:37;38.70;37.00
18085;DHT22;9169;44.492;11.372;2022-08-19T10:22:04;39.40;36.30
18085;DHT22;9169;44.492;11.372;2022-08-19T10:24:32;39.50;35.70
18085;DHT22;9169;44.492;11.372;2022-08-19T10:27:01;39.20;35.40
18085;DHT22;9169;44.492;11.372;2022-08-19T10:29:29;38.80;35.30
18085;DHT22;9169;44.492;11.372;2022-08-19T10:31:57;37.80;34.90
18085;DHT22;9169;44.492;11.372;2022-08-19T10:34:25;36.80;36.00
18085;DHT22;9169;44.492;11.372;2022-08-19T10:36:52;36.00;36.80
18085;DHT22;9169;44.492;11.372;2022-08-19T10:39:19;35.80;37.90
18085;DHT22;9169;44.492;11.372;2022-08-19T10:41:46;36.40;38.30
18085;DHT22;9169;44.492;11.372;2022-08-19T10:44:14;37.40;37.80
18085;DHT22;9169;44.492;11.372;2022-08-19T10:46:42;37.70;36.90
18085;DHT22;9169;44.492;11.372;2022-08-19T10:49:12;38.30;36.80
18085;DHT22;9169;44.492;11.372;2022-08-19T10:51:39;39.20;36.00
18085;DHT22;9169;44.492;11.372;2022-08-19T10:54:24;40.00;35.20
18085;DHT22;9169;44.492;11.372;2022-08-19T10:57:11;40.10;34.70
18085;DHT22;9169;44.492;11.372;2022-08-19T10:59:38;40.30;34.10
18085;DHT22;9169;44.492;11.372;2022-08-19T11:02:06;40.90;34.30
18085;DHT22;9169;44.492;11.372;2022-08-19T11:04:35;41.30;33.20
18085;DHT22;9169;44.492;11.372;2022-08-19T11:07:02;41.60;33.20
18085;DHT22;9169;44.492;11.372;2022-08-19T11:09:29;41.70;32.30
18085;DHT22;9169;44.492;11.372;2022-08-19T11:11:57;41.70;32.90
18085;DHT22;9169;44.492;11.372;2022-08-19T11:14:23;41.90;32.80
18085;DHT22;9169;44.492;11.372;2022-08-19T11:16:52;42.50;32.70
18085;DHT22;9169;44.492;11.372;2022-08-19T11:19:21;42.90;32.70
18085;DHT22;9169;44.492;11.372;2022-08-19T11:21:49;43.00;31.50
18085;DHT22;9169;44.492;11.372;2022-08-19T11:24:17;42.80;31.70
18085;DHT22;9169;44.492;11.372;2022-08-19T11:26:45;42.90;31.30
18085;DHT22;9169;44.492;11.372;2022-08-19T11:29:13;43.00;31.50
18085;DHT22;9169;44.492;11.372;2022-08-19T11:31:41;42.90;30.80
18085;DHT22;9169;44.492;11.372;2022-08-19T11:34:11;42.80;31.40
18085;DHT22;9169;44.492;11.372;2022-08-19T11:36:39;42.70;31.20
18085;DHT22;9169;44.492;11.372;2022-08-19T11:39:07;42.60;31.00
18085;DHT22;9169;44.492;11.372;2022-08-19T11:41:34;42.50;30.50
18085;DHT22;9169;44.492;11.372;2022-08-19T11:44:01;42.30;31.30
18085;DHT22;9169;44.492;11.372;2022-08-19T11:46:30;42.20;31.50
18085;DHT22;9169;44.492;11.372;2022-08-19T11:48:57;42.10;31.50
18085;DHT22;9169;44.492;11.372;2022-08-19T11:51:26;42.10;31.70
18085;DHT22;9169;44.492;11.372;2022-08-19T11:53:53;41.70;31.20
18085;DHT22;9169;44.492;11.372;2022-08-19T11:56:20;41.10;31.50
18085;DHT22;9169;44.492;11.372;2022-08-19T11:58:47;40.70;30.60
18085;DHT22;9169;44.492;11.372;2022-08-19T12:01:15;40.10;31.10
18085;DHT22;9169;44.492;11.372;2022-08-19T12:03:42;39.70;31.40
18085;DHT22;9169;44.492;11.372;2022-08-19T12:06:10;39.80;32.10
18085;DHT22;9169;44.492;11.372;2022-08-19T12:08:39;40.20;32.50
18085;DHT22;9169;44.492;11.372;2022-08-19T12:11:06;40.90;31.90
18085;DHT22;9169;44.492;11.372;2022-08-19T12:13:33;41.50;32.10
18085;DHT22;9169;44.492;11.372;2022-08-19T12:16:00;42.00;31.80
18085;DHT22;9169;44.492;11.372;2022-08-19T12:18:33;42.70;31.70
18085;DHT22;9169;44.492;11.372;2022-08-19T12:21:00;42.80;30.70
18085;DHT22;9169;44.492;11.372;2022-08-19T12:23:26;42.70;30.40
18085;DHT22;9169;44.492;11.372;2022-08-19T12:25:55;42.70;30.50
18085;DHT22;9169;44.492;11.372;2022-08-19T12:28:22;42.30;30.50
18085;DHT22;9169;44.492;11.372;2022-08-19T12:30:50;41.70;30.70
18085;DHT22;9169;44.492;11.372;2022-08-19T12:33:17;41.30;30.70
18085;DHT22;9169;44.492;11.372;2022-08-19T12:35:44;41.00;31.40
18085;DHT22;9169;44.492;11.372;2022-08-19T12:38:11;40.80;31.10
18085;DHT22;9169;44.492;11.372;2022-08-19T12:40:38;40.40;31.00
18085;DHT22;9169;44.492;11.372;2022-08-19T12:43:07;39.80;31.30
18085;DHT22;9169;44.492;11.372;2022-08-19T12:45:34;39.00;30.80
18085;DHT22;9169;44.492;11.372;2022-08-19T12:48:01;38.30;31.80
18085;DHT22;9169;44.492;11.372;2022-08-19T12:50:28;37.70;32.50
18085;DHT22;9169;44.492;11.372;2022-08-19T12:52:55;37.50;32.90
18085;DHT22;9169;44.492;11.372;2022-08-19T12:55:22;37.30;32.80
18085;DHT22;9169;44.492;11.372;2022-08-19T12:57:50;37.60;33.40
18085;DHT22;9169;44.492;11.372;2022-08-19T13:00:19;37.90;32.70
18085;DHT22;9169;44.492;11.372;2022-08-19T13:02:47;38.40;33.10
18085;DHT22;9169;44.492;11.372;2022-08-19T13:05:16;39.40;32.70
18085;DHT22;9169;44.492;11.372;2022-08-19T13:07:45;40.40;31.30
18085;DHT22;9169;44.492;11.372;2022-08-19T13:10:12;40.40;30.50
18085;DHT22;9169;44.492;11.372;2022-08-19T13:12:40;40.40;31.10
18085;DHT22;9169;44.492;11.372;2022-08-19T13:15:10;41.00;31.50
18085;DHT22;9169;44.492;11.372;2022-08-19T13:17:39;41.20;30.60
18085;DHT22;9169;44.492;11.372;2022-08-19T13:20:07;40.80;30.20
18085;DHT22;9169;44.492;11.372;2022-08-19T13:22:34;40.30;31.10
18085;DHT22;9169;44.492;11.372;2022-08-19T13:25:01;40.40;31.70
18085;DHT22;9169;44.492;11.372;2022-08-19T13:27:28;41.10;31.80
18085;DHT22;9169;44.492;11.372;2022-08-19T13:29:55;41.60;29.90
18085;DHT22;9169;44.492;11.372;2022-08-19T13:32:40;41.40;29.90
18085;DHT22;9169;44.492;11.372;2022-08-19T13:35:26;40.90;30.10
18085;DHT22;9169;44.492;11.372;2022-08-19T13:37:53;41.20;30.30
18085;DHT22;9169;44.492;11.372;2022-08-19T13:40:21;41.50;30.00
18085;DHT22;9169;44.492;11.372;2022-08-19T13:42:49;41.90;30.00
18085;DHT22;9169;44.492;11.372;2022-08-19T13:45:17;42.50;30.00
18085;DHT22;9169;44.492;11.372;2022-08-19T13:47:46;42.50;29.50
18085;DHT22;9169;44.492;11.372;2022-08-19T13:50:15;41.70;29.10
18085;DHT22;9169;44.492;11.372;2022-08-19T13:52:42;40.90;29.70
18085;DHT22;9169;44.492;11.372;2022-08-19T13:55:10;40.20;30.50
18085;DHT22;9169;44.492;11.372;2022-08-19T13:57:37;39.50;30.60
18085;DHT22;9169;44.492;11.372;2022-08-19T14:00:05;38.70;31.30
18085;DHT22;9169;44.492;11.372;2022-08-19T14:02:33;38.10;32.10
18085;DHT22;9169;44.492;11.372;2022-08-19T14:05:01;37.60;32.50
18085;DHT22;9169;44.492;11.372;2022-08-19T14:07:28;37.10;32.50
18085;DHT22;9169;44.492;11.372;2022-08-19T14:09:55;36.60;32.30
18085;DHT22;9169;44.492;11.372;2022-08-19T14:12:21;36.40;33.30
18085;DHT22;9169;44.492;11.372;2022-08-19T14:14:49;36.80;33.80
18085;DHT22;9169;44.492;11.372;2022-08-19T14:17:15;36.90;33.10
18085;DHT22;9169;44.492;11.372;2022-08-19T14:19:42;36.90;33.20
18085;DHT22;9169;44.492;11.372;2022-08-19T14:22:10;36.80;33.00
18085;DHT22;9169;44.492;11.372;2022-08-19T14:24:37;36.70;33.00
18085;DHT22;9169;44.492;11.372;2022-08-19T14:27:05;36.40;32.90
18085;DHT22;9169;44.492;11.372;2022-08-19T14:29:32;36.20;33.20
18085;DHT22;9169;44.492;11.372;2022-08-19T14:31:59;35.90;33.50
18085;DHT22;9169;44.492;11.372;2022-08-19T14:34:26;35.70;33.80
18085;DHT22;9169;44.492;11.372;2022-08-19T14:36:52;35.60;34.00
18085;DHT22;9169;44.492;11.372;2022-08-19T14:39:20;35.40;34.20
18085;DHT22;9169;44.492;11.372;2022-08-19T14:41:47;35.30;34.30
18085;DHT22;9169;44.492;11.372;2022-08-19T14:44:14;35.00;34.50
18085;DHT22;9169;44.492;11.372;2022-08-19T14:46:41;34.80;34.80
18085;DHT22;9169;44.492;11.372;2022-08-19T14:49:07;34.70;34.90
18085;DHT22;9169;44.492;11.372;2022-08-19T14:51:34;34.50;35.10
18085;DHT22;9169;44.492;11.372;2022-08-19T14:54:01;34.40;35.10
18085;DHT22;9169;44.492;11.372;2022-08-19T14:56:29;34.30;35.20
18085;DHT22;9169;44.492;11.372;2022-08-19T14:58:56;34.10;35.30
18085;DHT22;9169;44.492;11.372;2022-08-19T15:01:26;34.00;35.50
18085;DHT22;9169;44.492;11.372;2022-08-19T15:03:52;33.90;35.70
18085;DHT22;9169;44.492;11.372;2022-08-19T15:06:20;33.80;35.70
18085;DHT22;9169;44.492;11.372;2022-08-19T15:08:47;33.80;35.70
18085;DHT22;9169;44.492;11.372;2022-08-19T15:11:16;33.60;35.70
18085;DHT22;9169;44.492;11.372;2022-08-19T15:13:47;33.50;35.80
18085;DHT22;9169;44.492;11.372;2022-08-19T15:16:15;33.30;36.00
18085;DHT22;9169;44.492;11.372;2022-08-19T15:18:42;33.10;36.00
18085;DHT22;9169;44.492;11.372;2022-08-19T15:21:10;32.90;36.10
18085;DHT22;9169;44.492;11.372;2022-08-19T15:23:38;32.80;36.40
18085;DHT22;9169;44.492;11.372;2022-08-19T15:26:05;32.70;36.50
18085;DHT22;9169;44.492;11.372;2022-08-19T15:28:33;32.50;36.50
18085;DHT22;9169;44.492;11.372;2022-08-19T15:31:02;32.40;36.60
18085;DHT22;9169;44.492;11.372;2022-08-19T15:33:30;32.40;36.60
18085;DHT22;9169;44.492;11.372;2022-08-19T15:35:57;32.40;36.60